createdAt,value
2023-06-29T00:00:30.026Z,23.20
2023-06-29T00:01:02.208Z,23.30
2023-06-29T00:01:34.672Z,23.10
2023-06-29T00:02:06.640Z,23.10
2023-06-29T00:02:38.609Z,23.10
2023-06-29T00:03:12.708Z,23.10
2023-06-29T00:03:44.651Z,23.10
2023-06-29T00:04:22.058Z,23.20
2023-06-29T00:04:57.016Z,23.20
2023-06-29T00:05:28.883Z,23.20
2023-06-29T00:06:02.589Z,23.10
2023-06-29T00:06:37.458Z,23.10
2023-06-29T00:07:09.498Z,23.10
2023-06-29T00:07:41.821Z,23.10
2023-06-29T00:08:13.635Z,23.10
2023-06-29T00:08:48.207Z,23.10
2023-06-29T00:09:20.644Z,23.20
2023-06-29T00:09:55.944Z,23.10
2023-06-29T00:10:29.937Z,23.10
2023-06-29T00:11:03.985Z,23.10
2023-06-29T00:11:37.653Z,23.10
2023-06-29T00:12:09.656Z,23.10
2023-06-29T00:12:44.377Z,23.10
2023-06-29T00:13:16.234Z,23.10
2023-06-29T00:13:48.063Z,23.60
2023-06-29T00:14:19.950Z,23.10
2023-06-29T00:14:51.808Z,23.10
2023-06-29T00:15:23.643Z,23.10
2023-06-29T00:15:55.445Z,23.00
2023-06-29T00:16:27.362Z,23.00
2023-06-29T00:16:59.162Z,19.70
2023-06-29T00:17:31.019Z,23.00
2023-06-29T00:18:02.935Z,23.00
2023-06-29T00:18:36.113Z,23.00
2023-06-29T00:19:08.630Z,23.00
2023-06-29T00:19:40.532Z,23.10
2023-06-29T00:20:12.639Z,23.10
2023-06-29T00:20:44.564Z,23.00
2023-06-29T00:21:17.667Z,23.00
2023-06-29T00:21:49.564Z,23.00
2023-06-29T00:22:21.431Z,23.00
2023-06-29T00:22:53.245Z,23.00
2023-06-29T00:23:28.250Z,23.00
2023-06-29T00:24:00.258Z,23.00
2023-06-29T00:24:32.082Z,23.00
2023-06-29T00:25:04.039Z,23.00
2023-06-29T00:25:36.646Z,22.90
2023-06-29T00:26:08.541Z,23.00
2023-06-29T00:26:40.370Z,23.00
2023-06-29T00:27:13.825Z,22.90
2023-06-29T00:27:45.679Z,23.00
2023-06-29T00:28:17.638Z,23.00
2023-06-29T00:28:49.527Z,22.90
2023-06-29T00:29:21.735Z,23.00
2023-06-29T00:29:53.693Z,23.00
2023-06-29T00:30:25.526Z,22.90
2023-06-29T00:30:57.924Z,22.90
2023-06-29T00:31:33.070Z,22.90
2023-06-29T00:32:05.314Z,22.90
2023-06-29T00:32:37.250Z,22.90
2023-06-29T00:33:09.439Z,22.90
2023-06-29T00:33:41.296Z,22.90
2023-06-29T00:34:13.080Z,22.90
2023-06-29T00:34:45.565Z,22.90
2023-06-29T00:35:17.423Z,22.90
2023-06-29T00:35:49.183Z,22.90
2023-06-29T00:36:21.032Z,23.20
2023-06-29T00:36:52.872Z,22.90
2023-06-29T00:37:24.672Z,22.90
2023-06-29T00:37:57.142Z,22.90
2023-06-29T00:38:29.132Z,22.90
2023-06-29T00:39:01.498Z,22.90
2023-06-29T00:39:35.152Z,22.90
2023-06-29T00:40:07.945Z,22.90
2023-06-29T00:40:40.922Z,22.90
2023-06-29T00:41:12.744Z,22.90
2023-06-29T00:41:44.600Z,22.90
2023-06-29T00:42:16.499Z,22.90
2023-06-29T00:42:49.931Z,22.90
2023-06-29T00:43:21.850Z,22.80
2023-06-29T00:43:53.654Z,22.80
2023-06-29T00:44:25.626Z,22.90
2023-06-29T00:44:58.435Z,22.90
2023-06-29T00:45:30.362Z,22.80
2023-06-29T00:46:08.601Z,22.90
2023-06-29T00:46:40.500Z,22.80
2023-06-29T00:47:12.462Z,22.80
2023-06-29T00:47:44.930Z,22.80
2023-06-29T00:48:17.208Z,22.90
2023-06-29T00:48:49.106Z,22.90
2023-06-29T00:49:21.270Z,22.90
2023-06-29T00:49:53.185Z,22.80
2023-06-29T00:50:25.616Z,22.80
2023-06-29T00:50:57.462Z,23.00
2023-06-29T00:51:31.907Z,22.80
2023-06-29T00:52:03.947Z,22.80
2023-06-29T00:52:37.431Z,22.80
2023-06-29T00:53:09.502Z,22.80
2023-06-29T00:53:41.662Z,22.80
2023-06-29T00:54:13.474Z,22.80
2023-06-29T00:54:45.586Z,22.80
2023-06-29T00:55:17.609Z,22.80
2023-06-29T00:55:49.976Z,22.70
2023-06-29T00:56:22.278Z,22.80
2023-06-29T00:56:54.253Z,22.80
2023-06-29T00:57:26.305Z,22.80
2023-06-29T00:57:58.184Z,22.80
2023-06-29T00:58:30.641Z,22.80
2023-06-29T00:59:02.727Z,22.80
2023-06-29T00:59:36.938Z,22.80
2023-06-29T01:00:11.698Z,22.80
2023-06-29T01:00:43.978Z,22.80
2023-06-29T01:01:16.031Z,22.80
2023-06-29T01:01:48.005Z,22.90
2023-06-29T01:02:20.284Z,22.80
2023-06-29T01:02:52.302Z,22.70
2023-06-29T01:03:24.651Z,22.80
2023-06-29T01:03:59.064Z,22.80
2023-06-29T01:04:34.579Z,22.70
2023-06-29T01:05:06.627Z,22.70
2023-06-29T01:05:38.400Z,22.70
2023-06-29T01:06:17.131Z,22.70
2023-06-29T01:07:08.007Z,22.70
2023-06-29T01:07:55.119Z,22.70
2023-06-29T01:08:34.340Z,22.70
2023-06-29T01:09:06.872Z,22.70
2023-06-29T01:09:39.144Z,22.70
2023-06-29T01:10:13.299Z,22.60
2023-06-29T01:10:47.294Z,22.70
2023-06-29T01:11:21.370Z,24.90
2023-06-29T01:11:54.487Z,22.60
2023-06-29T01:12:27.663Z,22.70
2023-06-29T01:13:02.887Z,22.60
2023-06-29T01:13:37.830Z,22.60
2023-06-29T01:14:12.837Z,22.60
2023-06-29T01:14:46.732Z,22.60
2023-06-29T01:15:20.322Z,22.60
2023-06-29T01:15:53.152Z,22.60
2023-06-29T01:16:25.520Z,22.60
2023-06-29T01:16:59.217Z,22.60
2023-06-29T01:17:33.992Z,22.60
2023-06-29T01:18:07.392Z,22.60
2023-06-29T01:18:40.801Z,22.60
2023-06-29T01:19:21.567Z,22.60
2023-06-29T01:19:54.340Z,22.60
2023-06-29T01:20:27.509Z,22.60
2023-06-29T01:21:00.462Z,22.50
2023-06-29T01:21:36.414Z,22.60
2023-06-29T01:22:21.892Z,22.60
2023-06-29T01:23:08.094Z,22.70
2023-06-29T01:23:41.268Z,22.60
2023-06-29T01:24:15.629Z,22.60
2023-06-29T01:24:48.682Z,22.60
2023-06-29T01:25:21.613Z,22.60
2023-06-29T01:25:56.382Z,22.50
2023-06-29T01:26:32.132Z,22.60
2023-06-29T01:27:05.072Z,21.90
2023-06-29T01:27:38.630Z,22.50
2023-06-29T01:28:10.900Z,22.50
2023-06-29T01:28:42.686Z,22.50
2023-06-29T01:29:25.700Z,22.50
2023-06-29T01:30:02.071Z,22.50
2023-06-29T01:30:33.976Z,22.50
2023-06-29T01:31:06.559Z,22.50
2023-06-29T01:31:38.493Z,22.50
2023-06-29T01:32:11.253Z,22.60
2023-06-29T01:32:43.327Z,22.60
2023-06-29T01:33:16.701Z,22.50
2023-06-29T01:33:48.552Z,22.60
2023-06-29T01:34:22.120Z,22.50
2023-06-29T01:34:54.045Z,22.50
2023-06-29T01:35:26.200Z,22.50
2023-06-29T01:36:07.812Z,22.50
2023-06-29T01:36:49.775Z,22.50
2023-06-29T01:37:27.177Z,22.50
2023-06-29T01:38:06.027Z,22.50
2023-06-29T01:38:48.817Z,22.50
2023-06-29T01:39:24.831Z,22.50
2023-06-29T01:40:07.695Z,22.50
2023-06-29T01:40:45.337Z,22.50
2023-06-29T01:41:17.937Z,22.50
2023-06-29T01:41:51.687Z,22.50
2023-06-29T01:42:25.684Z,22.50
2023-06-29T01:42:57.872Z,22.50
2023-06-29T01:43:30.977Z,22.40
2023-06-29T01:44:07.124Z,22.40
2023-06-29T01:44:40.289Z,22.40
2023-06-29T01:45:13.394Z,23.00
2023-06-29T01:45:47.210Z,22.40
2023-06-29T01:46:22.600Z,22.40
2023-06-29T01:46:56.978Z,22.40
2023-06-29T01:47:30.499Z,22.30
2023-06-29T01:48:02.975Z,22.40
2023-06-29T01:48:37.468Z,22.30
2023-06-29T01:49:09.779Z,22.30
2023-06-29T01:49:41.659Z,22.40
2023-06-29T01:50:17.354Z,22.30
2023-06-29T01:50:50.033Z,22.30
2023-06-29T01:51:22.321Z,22.30
2023-06-29T01:51:54.197Z,22.30
2023-06-29T01:52:26.478Z,22.30
2023-06-29T01:52:59.602Z,22.30
2023-06-29T01:53:32.992Z,22.60
2023-06-29T01:54:08.721Z,22.30
2023-06-29T01:54:40.570Z,22.30
2023-06-29T01:55:13.070Z,22.30
2023-06-29T01:55:45.316Z,22.50
2023-06-29T01:56:17.354Z,22.30
2023-06-29T01:56:49.231Z,22.20
2023-06-29T01:57:21.205Z,22.20
2023-06-29T01:57:53.085Z,22.20
2023-06-29T01:58:25.032Z,22.20
2023-06-29T01:58:56.978Z,22.20
2023-06-29T01:59:30.874Z,22.20
2023-06-29T02:00:04.815Z,22.30
2023-06-29T02:00:45.653Z,22.20
2023-06-29T02:01:18.068Z,22.20
2023-06-29T02:01:50.114Z,22.20
2023-06-29T02:02:22.158Z,22.00
2023-06-29T02:02:54.220Z,22.10
2023-06-29T02:03:26.169Z,22.10
2023-06-29T02:03:58.125Z,22.30
2023-06-29T02:04:30.052Z,22.10
2023-06-29T02:05:01.897Z,22.10
2023-06-29T02:05:33.749Z,22.10
2023-06-29T02:06:06.710Z,22.20
2023-06-29T02:06:38.528Z,22.10
2023-06-29T02:07:10.410Z,22.10
2023-06-29T02:07:42.184Z,22.10
2023-06-29T02:08:14.102Z,22.40
2023-06-29T02:08:46.273Z,22.40
2023-06-29T02:09:18.134Z,22.10
2023-06-29T02:09:49.949Z,22.10
2023-06-29T02:10:21.944Z,22.10
2023-06-29T02:10:53.845Z,22.10
2023-06-29T02:11:25.662Z,22.10
2023-06-29T02:11:57.950Z,22.10
2023-06-29T02:12:31.053Z,22.10
2023-06-29T02:13:02.871Z,22.30
2023-06-29T02:13:34.671Z,22.10
2023-06-29T02:14:06.538Z,22.10
2023-06-29T02:14:38.366Z,22.10
2023-06-29T02:15:11.292Z,22.10
2023-06-29T02:15:43.467Z,22.10
2023-06-29T02:16:15.781Z,22.10
2023-06-29T02:16:50.647Z,22.10
2023-06-29T02:17:22.568Z,22.10
2023-06-29T02:17:54.786Z,22.40
2023-06-29T02:18:26.696Z,22.10
2023-06-29T02:18:58.506Z,23.40
2023-06-29T02:19:30.364Z,22.10
2023-06-29T02:20:02.194Z,22.10
2023-06-29T02:20:34.019Z,22.10
2023-06-29T02:21:05.877Z,22.30
2023-06-29T02:21:37.666Z,22.10
2023-06-29T02:22:10.160Z,20.40
2023-06-29T02:22:41.993Z,22.40
2023-06-29T02:23:13.871Z,22.10
2023-06-29T02:23:45.650Z,21.90
2023-06-29T02:24:17.442Z,21.90
2023-06-29T02:24:49.272Z,21.90
2023-06-29T02:25:21.209Z,21.90
2023-06-29T02:25:53.033Z,21.90
2023-06-29T02:26:27.025Z,21.90
2023-06-29T02:26:58.870Z,21.90
2023-06-29T02:27:30.712Z,21.90
2023-06-29T02:28:02.586Z,21.90
2023-06-29T02:28:34.361Z,21.90
2023-06-29T02:29:06.272Z,21.90
2023-06-29T02:29:38.136Z,21.90
2023-06-29T02:30:10.527Z,22.10
2023-06-29T02:30:42.479Z,21.90
2023-06-29T02:31:14.603Z,22.30
2023-06-29T02:31:46.706Z,21.90
2023-06-29T02:32:18.686Z,22.30
2023-06-29T02:32:51.346Z,21.90
2023-06-29T02:33:23.645Z,23.80
2023-06-29T02:33:55.466Z,21.90
2023-06-29T02:34:27.397Z,21.90
2023-06-29T02:34:59.554Z,21.90
2023-06-29T02:35:31.547Z,21.90
2023-06-29T02:36:03.526Z,22.00
2023-06-29T02:36:35.348Z,21.90
2023-06-29T02:37:07.202Z,21.90
2023-06-29T02:37:39.016Z,21.90
2023-06-29T02:38:11.147Z,21.90
2023-06-29T02:38:44.353Z,21.80
2023-06-29T02:39:16.213Z,21.90
2023-06-29T02:39:48.117Z,21.90
2023-06-29T02:40:20.238Z,22.20
2023-06-29T02:40:52.087Z,21.90
2023-06-29T02:41:23.934Z,22.10
2023-06-29T02:41:55.748Z,21.90
2023-06-29T02:42:28.397Z,21.80
2023-06-29T02:43:00.269Z,21.90
2023-06-29T02:43:32.148Z,21.80
2023-06-29T02:44:04.028Z,21.80
2023-06-29T02:44:35.888Z,21.80
2023-06-29T02:45:08.143Z,21.80
2023-06-29T02:45:40.180Z,21.80
2023-06-29T02:46:12.125Z,21.90
2023-06-29T02:46:44.485Z,21.80
2023-06-29T02:47:17.360Z,21.80
2023-06-29T02:47:49.220Z,21.80
2023-06-29T02:48:21.129Z,21.70
2023-06-29T02:48:53.074Z,21.80
2023-06-29T02:49:24.919Z,21.80
2023-06-29T02:49:56.735Z,21.80
2023-06-29T02:50:28.698Z,21.70
2023-06-29T02:51:00.758Z,21.60
2023-06-29T02:51:32.968Z,21.70
2023-06-29T02:52:09.399Z,21.70
2023-06-29T02:52:41.272Z,21.70
2023-06-29T02:53:15.692Z,21.70
2023-06-29T02:53:47.492Z,21.70
2023-06-29T02:54:19.745Z,21.10
2023-06-29T02:54:53.859Z,21.70
2023-06-29T02:55:26.354Z,21.70
2023-06-29T02:55:58.141Z,21.70
2023-06-29T02:56:30.000Z,21.70
2023-06-29T02:57:01.771Z,21.70
2023-06-29T02:57:33.594Z,21.60
2023-06-29T02:58:05.485Z,21.60
2023-06-29T02:58:37.278Z,20.90
2023-06-29T02:59:12.829Z,21.60
2023-06-29T03:02:28.702Z,21.60
2023-06-29T03:03:44.619Z,21.60
2023-06-29T03:04:16.542Z,21.60
2023-06-29T03:04:48.438Z,21.70
2023-06-29T03:05:20.294Z,21.70
2023-06-29T03:05:52.121Z,23.30
2023-06-29T03:06:24.106Z,21.40
2023-06-29T03:06:56.002Z,21.60
2023-06-29T03:07:28.050Z,22.20
2023-06-29T03:08:00.028Z,21.60
2023-06-29T03:08:31.859Z,21.60
2023-06-29T03:09:36.180Z,21.60
2023-06-29T03:10:08.598Z,21.60
2023-06-29T03:10:40.438Z,21.50
2023-06-29T03:11:12.329Z,21.60
2023-06-29T03:11:44.182Z,21.70
2023-06-29T03:12:16.020Z,21.60
2023-06-29T03:12:48.298Z,21.50
2023-06-29T03:13:20.154Z,20.70
2023-06-29T03:13:52.255Z,21.60
2023-06-29T03:14:24.176Z,21.60
2023-06-29T03:14:55.996Z,21.60
2023-06-29T03:16:02.156Z,21.50
2023-06-29T03:16:34.078Z,21.80
2023-06-29T03:17:06.665Z,21.60
2023-06-29T03:17:38.977Z,21.50
2023-06-29T03:18:10.922Z,21.50
2023-06-29T03:20:19.841Z,21.60
2023-06-29T03:20:51.713Z,21.50
2023-06-29T03:21:23.584Z,21.60
2023-06-29T03:22:27.951Z,21.50
2023-06-29T03:22:59.850Z,21.60
2023-06-29T03:23:31.626Z,21.50
2023-06-29T03:24:35.796Z,21.50
2023-06-29T03:26:13.846Z,21.30
2023-06-29T03:26:45.620Z,21.50
2023-06-29T03:27:17.506Z,21.50
2023-06-29T03:28:21.678Z,21.50
2023-06-29T03:28:53.503Z,21.40
2023-06-29T03:29:25.932Z,21.40
2023-06-29T03:29:57.830Z,21.40
2023-06-29T04:04:05.559Z,21.00
2023-06-29T04:22:56.761Z,20.90
2023-06-29T07:15:00.583Z,19.90
2023-06-29T07:15:33.735Z,19.90
2023-06-29T07:17:11.408Z,19.90
2023-06-29T07:17:43.631Z,19.80
2023-06-29T07:18:15.521Z,19.80
2023-06-29T07:21:28.085Z,19.70
2023-06-29T07:24:58.329Z,19.80
2023-06-29T07:25:30.145Z,19.70
2023-06-29T07:26:34.372Z,19.70
2023-06-29T07:27:43.244Z,19.60
2023-06-29T07:28:15.136Z,19.70
2023-06-29T07:29:19.416Z,19.70
2023-06-29T07:29:51.228Z,19.60
2023-06-29T07:30:23.114Z,19.70
2023-06-29T07:30:55.035Z,19.60
2023-06-29T07:31:28.747Z,19.70
2023-06-29T07:32:00.615Z,19.70
2023-06-29T07:32:32.462Z,19.70
2023-06-29T07:33:37.057Z,19.70
2023-06-29T07:34:08.980Z,19.40
2023-06-29T07:34:40.818Z,19.60
2023-06-29T07:35:46.164Z,19.60
2023-06-29T07:36:18.259Z,19.50
2023-06-29T07:38:59.798Z,19.80
2023-06-29T07:39:31.999Z,19.70
2023-06-29T07:40:05.475Z,19.70
2023-06-29T07:40:37.495Z,19.70
2023-06-29T07:41:09.980Z,19.70
2023-06-29T07:42:16.832Z,19.90
2023-06-29T07:42:55.394Z,19.80
2023-06-29T07:43:27.197Z,19.70
2023-06-29T07:44:00.956Z,19.70
2023-06-29T07:44:32.801Z,19.60
2023-06-29T07:45:05.447Z,19.70
2023-06-29T07:45:37.237Z,19.60
2023-06-29T07:46:10.897Z,19.60
2023-06-29T07:46:42.827Z,19.70
2023-06-29T07:47:46.934Z,19.70
2023-06-29T07:48:18.985Z,19.70
2023-06-29T07:49:24.486Z,19.70
2023-06-29T07:49:56.285Z,19.70
2023-06-29T07:50:28.098Z,19.70
2023-06-29T07:51:34.323Z,19.70
2023-06-29T07:52:06.526Z,19.70
2023-06-29T07:52:39.302Z,19.70
2023-06-29T07:53:43.389Z,19.80
2023-06-29T07:54:15.295Z,19.80
2023-06-29T07:54:47.137Z,19.70
2023-06-29T07:55:18.965Z,19.80
2023-06-29T07:55:50.736Z,19.70
2023-06-29T07:56:22.564Z,19.70
2023-06-29T07:58:40.089Z,19.70
2023-06-29T08:00:17.484Z,19.60
2023-06-29T08:00:51.846Z,19.60
2023-06-29T08:01:23.889Z,19.70
2023-06-29T08:02:28.202Z,19.70
2023-06-29T08:03:00.155Z,19.70
2023-06-29T08:04:13.186Z,19.80
2023-06-29T08:07:08.577Z,19.40
2023-06-29T08:08:16.019Z,19.70
2023-06-29T08:08:48.299Z,19.70
2023-06-29T08:09:53.760Z,19.60
2023-06-29T08:10:25.583Z,19.70
2023-06-29T08:11:32.060Z,19.70
2023-06-29T08:12:04.467Z,19.60
2023-06-29T08:12:36.329Z,19.70
2023-06-29T08:13:40.928Z,19.80
2023-06-29T08:14:12.781Z,19.80
2023-06-29T08:14:44.834Z,19.60
2023-06-29T08:15:16.725Z,19.70
2023-06-29T08:16:20.951Z,19.70
2023-06-29T08:16:52.965Z,20.00
2023-06-29T08:17:24.934Z,19.60
2023-06-29T08:18:30.434Z,19.70
2023-06-29T08:19:05.062Z,19.70
2023-06-29T08:19:36.867Z,19.80
2023-06-29T08:20:13.426Z,19.70
2023-06-29T08:21:20.989Z,19.70
2023-06-29T08:21:56.356Z,19.80
2023-06-29T08:22:28.355Z,19.70
2023-06-29T08:24:39.173Z,19.70
2023-06-29T08:25:43.258Z,19.70
2023-06-29T08:26:47.485Z,19.80
2023-06-29T08:27:20.757Z,19.70
2023-06-29T08:27:52.583Z,19.70
2023-06-29T08:28:24.335Z,19.60
2023-06-29T08:28:56.119Z,19.70
2023-06-29T08:32:45.093Z,19.70
2023-06-29T08:33:50.620Z,19.70
2023-06-29T08:34:23.163Z,19.70
2023-06-29T08:34:55.265Z,19.70
2023-06-29T08:35:27.114Z,19.70
2023-06-29T08:35:58.925Z,19.80
2023-06-29T08:37:06.008Z,19.60
2023-06-29T08:37:37.847Z,19.70
2023-06-29T08:38:09.753Z,19.70
2023-06-29T08:39:45.964Z,19.70
2023-06-29T08:40:59.692Z,19.80
2023-06-29T08:41:34.613Z,19.80
2023-06-29T08:42:08.412Z,19.80
2023-06-29T08:42:41.184Z,19.80
2023-06-29T08:43:16.034Z,19.70
2023-06-29T08:44:20.327Z,19.80
2023-06-29T08:45:24.349Z,19.70
2023-06-29T08:45:56.158Z,19.70
2023-06-29T08:46:36.970Z,19.70
2023-06-29T08:47:52.379Z,20.60
2023-06-29T08:48:30.246Z,19.70
2023-06-29T08:49:44.014Z,19.70
2023-06-29T08:50:16.059Z,19.70
2023-06-29T08:50:57.399Z,19.80
2023-06-29T08:51:31.804Z,19.70
2023-06-29T08:52:39.302Z,19.70
2023-06-29T08:54:17.010Z,19.70
2023-06-29T08:55:23.767Z,19.70
2023-06-29T08:55:56.442Z,19.60
2023-06-29T08:57:06.983Z,19.80
2023-06-29T08:57:40.019Z,19.70
2023-06-29T08:58:45.665Z,19.70
2023-06-29T09:02:40.967Z,19.70
2023-06-29T09:03:14.409Z,19.80
2023-06-29T09:04:19.881Z,19.70
2023-06-29T09:04:56.935Z,19.60
2023-06-29T09:05:28.880Z,19.70
2023-06-29T09:06:33.875Z,19.70
2023-06-29T09:07:06.209Z,19.60
2023-06-29T09:07:47.246Z,19.70
2023-06-29T09:08:20.360Z,19.60
2023-06-29T09:09:25.458Z,19.60
2023-06-29T09:10:29.905Z,19.60
2023-06-29T09:11:01.752Z,19.50
2023-06-29T09:13:49.862Z,19.70
2023-06-29T09:14:58.175Z,19.70
2023-06-29T09:16:05.861Z,19.70
2023-06-29T09:16:51.875Z,19.60
2023-06-29T09:17:29.412Z,19.60
2023-06-29T09:18:01.906Z,19.50
2023-06-29T09:18:34.278Z,19.60
2023-06-29T09:19:06.742Z,19.60
2023-06-29T09:20:17.965Z,19.50
2023-06-29T09:20:52.085Z,19.60
2023-06-29T09:21:58.478Z,19.50
2023-06-29T09:22:32.373Z,19.50
2023-06-29T09:23:07.379Z,19.50
2023-06-29T09:23:45.067Z,19.60
2023-06-29T09:25:39.289Z,19.50
2023-06-29T09:27:52.618Z,19.60
2023-06-29T09:28:25.233Z,19.70
2023-06-29T09:29:00.982Z,19.60
2023-06-29T09:29:40.030Z,19.60
2023-06-29T09:30:54.298Z,19.60
2023-06-29T09:31:33.722Z,19.50
2023-06-29T09:32:06.091Z,19.70
2023-06-29T09:32:39.501Z,19.60
2023-06-29T09:33:44.673Z,19.60
2023-06-29T09:35:25.074Z,19.70
2023-06-29T09:35:56.864Z,19.70
2023-06-29T09:36:29.634Z,19.60
2023-06-29T09:37:01.650Z,19.60
2023-06-29T09:37:34.581Z,19.70
2023-06-29T09:39:13.386Z,19.70
2023-06-29T09:40:30.623Z,19.60
2023-06-29T09:41:05.911Z,19.80
2023-06-29T09:41:59.651Z,19.70
2023-06-29T09:43:17.222Z,19.50
2023-06-29T09:43:50.239Z,19.60
2023-06-29T09:45:03.341Z,19.60
2023-06-29T09:45:35.104Z,19.70
2023-06-29T09:46:10.771Z,19.70
2023-06-29T09:46:43.055Z,19.70
2023-06-29T09:49:10.838Z,19.60
2023-06-29T09:49:49.902Z,19.60
2023-06-29T09:50:24.260Z,19.70
2023-06-29T09:50:56.466Z,19.60
2023-06-29T09:51:28.588Z,19.80
2023-06-29T09:52:05.343Z,19.70
2023-06-29T09:53:18.528Z,19.80
2023-06-29T09:54:26.484Z,19.80
2023-06-29T09:54:59.523Z,19.80
2023-06-29T09:55:32.042Z,19.80
2023-06-29T09:56:04.577Z,19.80
2023-06-29T09:56:38.730Z,19.80
2023-06-29T09:57:51.253Z,19.80
2023-06-29T09:58:23.146Z,19.90
2023-06-29T09:58:57.498Z,19.80
2023-06-29T09:59:32.783Z,19.80
2023-06-29T10:00:10.667Z,19.90
2023-06-29T10:01:29.870Z,20.10
2023-06-29T10:02:05.187Z,19.90
2023-06-29T10:03:12.460Z,19.80
2023-06-29T10:03:45.042Z,19.90
2023-06-29T10:04:17.016Z,19.90
2023-06-29T10:06:07.338Z,19.90
2023-06-29T10:06:52.490Z,19.90
2023-06-29T10:07:24.773Z,19.90
2023-06-29T10:08:07.246Z,19.90
2023-06-29T10:08:43.271Z,19.90
2023-06-29T10:09:21.832Z,19.90
2023-06-29T10:10:29.660Z,19.60
2023-06-29T10:11:09.405Z,19.90
2023-06-29T10:11:45.473Z,19.90
2023-06-29T10:12:21.026Z,19.90
2023-06-29T10:12:58.290Z,19.90
2023-06-29T10:13:43.111Z,20.00
2023-06-29T10:14:16.777Z,19.90
2023-06-29T10:15:25.258Z,20.00
2023-06-29T10:16:41.063Z,19.90
2023-06-29T10:18:12.976Z,20.00
2023-06-29T10:18:51.147Z,19.90
2023-06-29T10:19:24.488Z,19.90
2023-06-29T10:20:39.230Z,20.00
2023-06-29T10:21:11.533Z,19.90
2023-06-29T10:22:21.352Z,20.00
2023-06-29T10:26:25.936Z,19.90
2023-06-29T10:27:37.158Z,20.00
2023-06-29T10:28:13.975Z,20.00
2023-06-29T10:28:46.210Z,20.00
2023-06-29T10:29:17.969Z,20.00
2023-06-29T10:31:00.695Z,20.10
2023-06-29T10:32:35.007Z,20.00
2023-06-29T10:33:10.417Z,19.80
2023-06-29T10:33:49.161Z,20.00
2023-06-29T10:34:29.432Z,19.90
2023-06-29T10:35:15.160Z,20.10
2023-06-29T10:36:46.933Z,20.20
2023-06-29T10:37:34.582Z,20.00
2023-06-29T10:38:14.815Z,20.10
2023-06-29T10:38:46.711Z,20.10
2023-06-29T10:39:41.245Z,20.10
2023-06-29T10:40:21.569Z,20.10
2023-06-29T10:42:13.298Z,20.10
2023-06-29T10:43:56.901Z,20.10
2023-06-29T10:44:35.533Z,20.20
2023-06-29T10:45:10.136Z,20.20
2023-06-29T10:45:42.663Z,20.10
2023-06-29T10:46:15.496Z,20.10
2023-06-29T10:46:51.135Z,20.10
2023-06-29T10:48:22.666Z,20.10
2023-06-29T10:49:02.942Z,20.10
2023-06-29T10:50:50.903Z,20.20
2023-06-29T10:51:25.654Z,20.20
2023-06-29T10:52:07.506Z,20.20
2023-06-29T10:52:44.344Z,20.50
2023-06-29T10:53:18.867Z,20.20
2023-06-29T10:53:50.806Z,20.30
2023-06-29T10:54:26.199Z,20.20
2023-06-29T10:55:21.939Z,20.20
2023-06-29T10:55:57.361Z,20.20
2023-06-29T10:56:31.311Z,20.20
2023-06-29T10:57:11.461Z,20.10
2023-06-29T10:57:47.822Z,20.30
2023-06-29T10:58:59.625Z,20.20
2023-06-29T10:59:35.624Z,20.20
2023-06-29T11:00:08.821Z,20.20
2023-06-29T11:01:13.673Z,20.30
2023-06-29T11:01:45.822Z,20.30
2023-06-29T11:02:21.597Z,20.20
2023-06-29T11:02:56.301Z,20.30
2023-06-29T11:03:31.627Z,20.30
2023-06-29T11:04:03.934Z,20.30
2023-06-29T11:04:35.874Z,20.30
2023-06-29T11:05:07.992Z,20.00
2023-06-29T11:05:40.246Z,20.30
2023-06-29T11:07:10.305Z,20.30
2023-06-29T11:07:48.412Z,20.40
2023-06-29T11:10:04.554Z,20.30
2023-06-29T11:10:37.149Z,20.40
2023-06-29T11:11:15.487Z,20.30
2023-06-29T11:12:56.189Z,20.50
2023-06-29T11:14:39.532Z,20.30
2023-06-29T11:16:08.211Z,20.40
2023-06-29T11:17:12.989Z,20.40
2023-06-29T11:17:46.462Z,20.40
2023-06-29T11:18:18.805Z,20.20
2023-06-29T11:18:55.292Z,20.40
2023-06-29T11:19:29.107Z,20.40
2023-06-29T11:20:04.638Z,20.50
2023-06-29T11:20:40.835Z,20.40
2023-06-29T11:21:14.722Z,20.40
2023-06-29T11:22:53.814Z,20.40
2023-06-29T11:23:27.797Z,20.50
2023-06-29T11:24:31.971Z,20.50
2023-06-29T11:25:05.384Z,20.50
2023-06-29T11:25:40.039Z,20.50
2023-06-29T11:26:11.965Z,20.50
2023-06-29T11:26:44.635Z,20.40
2023-06-29T11:27:18.110Z,20.50
2023-06-29T11:27:49.970Z,20.50
2023-06-29T11:28:55.011Z,20.50
2023-06-29T11:29:32.368Z,20.50
2023-06-29T11:30:10.986Z,20.50
2023-06-29T11:31:42.048Z,20.50
2023-06-29T11:32:14.158Z,20.50
2023-06-29T11:34:48.224Z,20.60
2023-06-29T11:35:56.515Z,20.60
2023-06-29T11:37:14.655Z,20.50
2023-06-29T11:37:47.656Z,20.50
2023-06-29T11:38:20.004Z,20.60
2023-06-29T11:39:13.946Z,20.60
2023-06-29T11:39:50.156Z,20.60
2023-06-29T11:41:06.124Z,20.70
2023-06-29T11:43:59.269Z,20.60
2023-06-29T11:45:37.310Z,20.70
2023-06-29T11:46:18.648Z,20.70
2023-06-29T11:47:05.526Z,20.60
2023-06-29T11:47:38.431Z,20.70
2023-06-29T11:48:12.264Z,20.70
2023-06-29T11:48:55.474Z,20.70
2023-06-29T11:49:27.510Z,20.70
2023-06-29T11:51:06.304Z,20.70
2023-06-29T11:52:15.803Z,20.70
2023-06-29T11:54:05.162Z,20.70
2023-06-29T11:54:40.421Z,20.90
2023-06-29T11:55:16.789Z,20.80
2023-06-29T11:57:01.728Z,20.80
2023-06-29T11:58:06.554Z,20.70
2023-06-29T11:59:13.375Z,20.70
2023-06-29T11:59:46.360Z,20.80
2023-06-29T12:02:04.852Z,20.80
2023-06-29T12:02:46.047Z,20.80
2023-06-29T12:05:43.338Z,20.90
2023-06-29T12:06:18.641Z,20.80
2023-06-29T12:06:57.629Z,20.90
2023-06-29T12:07:49.197Z,20.80
2023-06-29T12:08:22.506Z,20.80
2023-06-29T12:09:34.641Z,20.80
2023-06-29T12:11:17.219Z,20.80
2023-06-29T12:12:00.222Z,20.90
2023-06-29T12:12:38.097Z,20.90
2023-06-29T12:13:11.098Z,20.90
2023-06-29T12:13:47.155Z,20.90
2023-06-29T12:18:45.733Z,20.90
2023-06-29T12:19:17.747Z,21.00
2023-06-29T12:20:09.089Z,20.80
2023-06-29T12:20:44.757Z,21.10
2023-06-29T12:22:25.989Z,21.00
2023-06-29T12:24:08.940Z,21.00
2023-06-29T12:25:15.810Z,21.00
2023-06-29T12:25:49.750Z,21.00
2023-06-29T12:28:00.652Z,21.10
2023-06-29T12:28:33.753Z,21.30
2023-06-29T12:29:39.847Z,21.40
2023-06-29T12:30:15.964Z,21.10
2023-06-29T12:30:48.177Z,21.10
2023-06-29T12:31:28.558Z,21.00
2023-06-29T12:32:03.657Z,21.10
2023-06-29T12:32:38.396Z,21.10
2023-06-29T12:33:13.037Z,21.00
2023-06-29T12:33:45.126Z,21.10
2023-06-29T12:34:16.895Z,21.10
2023-06-29T12:34:49.452Z,21.10
2023-06-29T12:35:58.028Z,21.30
2023-06-29T12:37:35.855Z,21.10
2023-06-29T12:38:07.736Z,21.20
2023-06-29T12:38:48.300Z,21.20
2023-06-29T12:39:54.094Z,21.10
2023-06-29T12:41:33.293Z,21.20
2023-06-29T12:42:52.938Z,21.20
2023-06-29T12:45:06.376Z,21.30
2023-06-29T12:45:38.351Z,21.20
2023-06-29T12:46:11.958Z,21.20
2023-06-29T12:46:43.789Z,21.20
2023-06-29T12:47:15.605Z,21.20
2023-06-29T12:47:47.754Z,21.20
2023-06-29T12:48:19.566Z,21.20
2023-06-29T12:48:51.400Z,21.20
2023-06-29T12:50:53.044Z,21.30
2023-06-29T12:51:57.557Z,21.30
2023-06-29T12:53:34.203Z,21.40
2023-06-29T12:55:17.615Z,21.30
2023-06-29T12:55:52.737Z,21.40
2023-06-29T12:56:26.360Z,21.40
2023-06-29T12:58:39.585Z,21.40
2023-06-29T12:59:49.882Z,21.30
2023-06-29T13:00:30.525Z,21.40
2023-06-29T13:11:22.825Z,22.70
2023-06-29T13:11:54.728Z,21.50
2023-06-29T13:12:27.691Z,21.10
2023-06-29T13:13:00.555Z,21.20
2023-06-29T13:13:32.521Z,21.20
2023-06-29T13:14:04.372Z,21.80
2023-06-29T13:15:11.525Z,21.50
2023-06-29T13:15:45.989Z,21.50
2023-06-29T13:16:18.238Z,21.50
2023-06-29T13:16:50.136Z,21.60
2023-06-29T13:17:54.614Z,21.60
2023-06-29T13:18:26.633Z,21.50
2023-06-29T13:20:03.794Z,21.90
2023-06-29T13:20:35.620Z,21.60
2023-06-29T13:21:07.392Z,21.50
2023-06-29T13:21:40.861Z,21.70
2023-06-29T13:23:17.723Z,21.70
2023-06-29T13:24:23.350Z,21.60
2023-06-29T13:24:55.266Z,21.60
2023-06-29T13:25:59.246Z,21.70
2023-06-29T13:27:04.742Z,21.70
2023-06-29T13:27:40.414Z,21.70
2023-06-29T13:28:13.004Z,21.70
2023-06-29T13:29:17.278Z,21.80
2023-06-29T13:30:53.526Z,21.70
2023-06-29T13:31:58.937Z,21.80
2023-06-29T13:32:30.740Z,21.70
2023-06-29T13:34:08.671Z,21.70
2023-06-29T13:34:40.613Z,21.70
2023-06-29T13:35:12.387Z,21.70